Time;durP1;ratioP1;P1;durP2;ratioP2;P2;SDS_P1;SDS_P2;PMS_P1;PMS_P2;Temp;Humidity;BMP_temperature;BMP_pressure;BME280_temperature;BME280_humidity;BME280_pressure;Samples;Min_cycle;Max_cycle;Signal;HPM_P1;HPM_P2
2020/12/31 00:00:09;;;;;;;8.70;4.77;;;;;;;10.82;65.99;94226.41;4992890;28;20448;-80
2020/12/31 00:02:35;;;;;;;8.80;4.20;;;;;;;10.92;66.36;94213.19;4993100;28;20487;-80
2020/12/31 00:05:02;;;;;;;10.70;4.50;;;;;;;10.90;65.98;94220.41;4993085;28;20464;-80
2020/12/31 00:07:28;;;;;;;16.30;4.30;;;;;;;10.87;66.45;94221.53;4992821;28;20455;-79
2020/12/31 00:09:55;;;;;;;9.00;4.50;;;;;;;10.89;65.51;94216.94;4993175;28;20804;-80
2020/12/31 00:12:22;;;;;;;10.77;3.63;;;;;;;10.90;65.67;94213.34;4992833;28;20469;-80
2020/12/31 00:14:48;;;;;;;14.20;4.53;;;;;;;10.95;65.86;94224.22;4992604;28;20450;-80
2020/12/31 00:17:14;;;;;;;24.73;4.53;;;;;;;11.02;64.61;94220.06;4992772;28;20550;-80
2020/12/31 00:19:41;;;;;;;13.60;7.77;;;;;;;11.04;64.04;94209.41;4992653;28;20459;-80
2020/12/31 00:22:07;;;;;;;18.80;6.00;;;;;;;11.09;64.64;94213.22;4974395;28;20488;-80
2020/12/31 00:24:33;;;;;;;13.50;5.20;;;;;;;11.14;64.59;94218.03;4992971;28;20460;-79
2020/12/31 00:27:01;;;;;;;9.23;4.50;;;;;;;11.08;64.08;94208.94;4992602;28;20450;-80
2020/12/31 00:29:27;;;;;;;9.13;4.63;;;;;;;10.96;65.15;94215.38;4992625;28;20458;-80
2020/12/31 00:31:54;;;;;;;11.43;4.70;;;;;;;10.91;64.90;94207.13;4992821;28;20448;-80
2020/12/31 00:34:20;;;;;;;8.10;4.50;;;;;;;10.97;64.67;94198.66;4992506;28;20448;-80
2020/12/31 00:36:47;;;;;;;14.60;4.57;;;;;;;10.79;64.94;94197.81;4992713;28;20454;-80
2020/12/31 00:39:14;;;;;;;15.00;5.60;;;;;;;10.80;64.96;94188.97;4992732;28;20462;-80
2020/12/31 00:41:40;;;;;;;16.70;5.10;;;;;;;10.86;65.63;94204.13;4992618;28;20444;-80
2020/12/31 00:44:07;;;;;;;12.87;6.03;;;;;;;10.92;64.86;94208.78;4992499;28;20455;-80
2020/12/31 00:46:34;;;;;;;10.00;4.60;;;;;;;10.91;65.65;94198.44;4992804;28;20451;-80
2020/12/31 00:49:00;;;;;;;10.97;4.13;;;;;;;10.97;64.61;94214.41;4992664;28;20447;-80
2020/12/31 00:51:27;;;;;;;16.80;4.27;;;;;;;11.00;64.90;94222.00;4992719;28;20479;-80
2020/12/31 00:53:53;;;;;;;13.63;4.80;;;;;;;11.03;65.05;94213.00;4992323;28;20447;-80
2020/12/31 00:56:20;;;;;;;11.53;4.63;;;;;;;10.96;64.63;94207.50;4992372;28;20440;-80
2020/12/31 00:58:46;;;;;;;16.53;7.40;;;;;;;10.96;64.96;94210.13;4992336;28;20671;-80
2020/12/31 01:01:13;;;;;;;10.70;5.97;;;;;;;10.98;64.87;94202.91;4992238;28;20451;-80
2020/12/31 01:03:40;;;;;;;14.10;5.33;;;;;;;10.96;64.72;94175.19;4992219;28;20487;-80
2020/12/31 01:06:06;;;;;;;19.27;4.73;;;;;;;11.00;64.98;94171.31;4992205;28;20455;-80
2020/12/31 01:08:32;;;;;;;19.73;4.97;;;;;;;11.04;65.35;94172.66;4992462;28;20448;-80
2020/12/31 01:10:59;;;;;;;10.67;4.30;;;;;;;11.03;65.23;94163.94;4992117;28;20440;-80
2020/12/31 01:13:25;;;;;;;9.80;4.13;;;;;;;10.98;64.79;94162.72;4992139;28;20466;-80
2020/12/31 01:15:51;;;;;;;9.77;5.27;;;;;;;10.90;65.34;94155.59;4992766;28;20447;-80
2020/12/31 01:18:18;;;;;;;7.63;5.40;;;;;;;10.88;64.70;94149.69;4993021;28;20443;-80
2020/12/31 01:20:45;;;;;;;15.73;4.40;;;;;;;10.84;65.30;94153.59;4996270;28;20509;-80
2020/12/31 01:23:11;;;;;;;13.10;4.00;;;;;;;10.86;64.83;94146.38;4960907;28;20479;-80
2020/12/31 01:25:37;;;;;;;18.83;4.63;;;;;;;10.82;64.69;94134.53;4995404;28;20454;-80
2020/12/31 01:28:04;;;;;;;11.23;4.97;;;;;;;10.70;64.72;94147.06;4977208;28;20920;-80
2020/12/31 01:30:31;;;;;;;9.87;4.43;;;;;;;10.72;65.41;94145.13;4995503;28;20455;-80
2020/12/31 01:32:58;;;;;;;10.00;4.20;;;;;;;10.71;66.26;94148.72;4995632;28;20458;-79
2020/12/31 01:35:25;;;;;;;13.83;5.57;;;;;;;10.70;66.39;94152.31;4995336;28;20448;-80
2020/12/31 01:37:51;;;;;;;14.53;3.80;;;;;;;10.64;65.88;94152.06;4995338;28;20455;-80
2020/12/31 01:40:18;;;;;;;13.53;4.50;;;;;;;10.54;66.23;94160.84;4995602;28;20479;-80
2020/12/31 01:42:45;;;;;;;11.10;3.77;;;;;;;10.52;66.31;94159.34;4995404;28;20483;-80
2020/12/31 01:45:11;;;;;;;10.97;5.27;;;;;;;10.52;66.76;94157.53;4995389;28;20446;-80
2020/12/31 01:47:38;;;;;;;13.00;4.70;;;;;;;10.50;66.68;94166.53;4995454;28;20458;-80
2020/12/31 01:50:06;;;;;;;8.67;5.10;;;;;;;10.35;67.02;94168.81;4995154;28;20451;-80
2020/12/31 01:52:35;;;;;;;12.07;4.70;;;;;;;10.22;67.70;94155.22;4995273;28;20487;-80
2020/12/31 01:55:02;;;;;;;10.00;4.23;;;;;;;10.23;67.57;94149.00;4995270;28;20447;-80
2020/12/31 01:57:29;;;;;;;16.40;6.90;;;;;;;10.34;66.84;94161.09;4995604;28;20450;-80
2020/12/31 01:59:56;;;;;;;16.07;5.17;;;;;;;10.36;67.45;94154.72;4995410;28;20996;-80
2020/12/31 02:02:22;;;;;;;13.57;5.83;;;;;;;10.42;66.56;94163.81;4995556;28;20537;-80
2020/12/31 02:04:50;;;;;;;12.17;5.50;;;;;;;10.46;66.94;94145.00;4995041;28;20941;-80
2020/12/31 02:07:17;;;;;;;12.10;4.17;;;;;;;10.48;67.05;94144.88;4995224;28;20505;-80
2020/12/31 02:09:44;;;;;;;10.70;4.70;;;;;;;10.51;66.62;94142.78;4995067;28;21147;-80
2020/12/31 02:12:11;;;;;;;13.67;5.50;;;;;;;10.51;66.48;94148.00;4994776;28;20462;-80
2020/12/31 02:14:47;;;;;;;16.20;8.17;;;;;;;10.47;66.66;94141.41;4994710;28;20460;-80
2020/12/31 02:17:13;;;;;;;11.93;5.27;;;;;;;10.43;66.94;94132.19;4994687;28;20465;-80
2020/12/31 02:19:40;;;;;;;18.00;5.87;;;;;;;10.31;66.93;94133.34;4994771;28;20514;-80
2020/12/31 02:22:10;;;;;;;13.60;6.77;;;;;;;10.31;66.67;94135.97;4994768;28;20482;-80
2020/12/31 02:24:37;;;;;;;13.07;6.10;;;;;;;10.28;67.73;94140.69;4994930;28;20990;-80
2020/12/31 02:27:03;;;;;;;16.13;6.63;;;;;;;10.20;68.37;94134.41;4994545;28;20505;-80
2020/12/31 02:29:30;;;;;;;14.87;6.47;;;;;;;10.15;68.00;94133.97;4993530;28;20949;-80
2020/12/31 02:31:56;;;;;;;28.67;7.90;;;;;;;10.13;68.51;94129.84;4976303;28;20451;-80
2020/12/31 02:34:24;;;;;;;12.13;7.07;;;;;;;10.10;68.10;94136.19;4994526;28;20478;-80
2020/12/31 02:36:51;;;;;;;23.47;6.87;;;;;;;10.08;68.96;94134.69;4994323;28;20451;-80
2020/12/31 02:39:19;;;;;;;16.23;6.43;;;;;;;10.00;68.93;94116.25;4994580;28;20468;-80
2020/12/31 02:41:46;;;;;;;19.90;5.73;;;;;;;10.00;68.67;94111.00;4994477;28;20505;-81
2020/12/31 02:44:14;;;;;;;13.00;6.10;;;;;;;10.02;69.30;94101.19;4994532;28;20451;-80
2020/12/31 02:46:40;;;;;;;18.93;6.87;;;;;;;10.05;68.89;94090.44;4994566;28;20454;-80
2020/12/31 02:49:07;;;;;;;14.30;5.20;;;;;;;10.04;69.41;94086.16;4994381;28;20446;-81
2020/12/31 02:51:35;;;;;;;15.67;5.80;;;;;;;10.02;68.96;94078.44;4976071;28;20477;-80
2020/12/31 02:54:01;;;;;;;11.70;4.70;;;;;;;9.93;69.54;94082.78;4994325;28;20510;-80
2020/12/31 02:56:29;;;;;;;14.10;5.23;;;;;;;9.95;68.94;94082.63;4994434;28;20451;-80
2020/12/31 02:58:56;;;;;;;13.97;5.20;;;;;;;9.96;68.97;94088.69;4994191;28;20469;-80
2020/12/31 03:01:22;;;;;;;12.27;5.20;;;;;;;9.91;68.97;94087.34;4994101;28;20528;-80
2020/12/31 03:03:50;;;;;;;16.83;5.67;;;;;;;9.84;69.38;94085.44;4993756;28;20967;-80
2020/12/31 03:06:17;;;;;;;16.90;4.70;;;;;;;9.84;69.47;94080.22;4993859;28;20447;-80
2020/12/31 03:08:44;;;;;;;7.60;4.77;;;;;;;9.81;69.02;94073.44;4993963;28;20457;-80
2020/12/31 03:11:15;;;;;;;11.90;5.03;;;;;;;9.78;69.44;94071.13;4993759;28;20455;-80
2020/12/31 03:13:42;;;;;;;13.90;5.40;;;;;;;9.70;69.72;94062.34;4975721;28;20918;-80
2020/12/31 03:16:09;;;;;;;10.43;5.43;;;;;;;9.65;69.45;94070.63;4994052;28;20525;-80
2020/12/31 03:18:35;;;;;;;13.97;5.63;;;;;;;9.54;69.95;94058.56;4993847;28;20875;-80
2020/12/31 03:21:02;;;;;;;12.30;5.73;;;;;;;9.55;70.31;94067.25;4993817;28;20460;-80
2020/12/31 03:23:28;;;;;;;11.10;4.50;;;;;;;9.53;70.56;94062.13;4959084;28;20483;-80
2020/12/31 03:25:54;;;;;;;15.00;4.87;;;;;;;9.52;71.08;94065.72;4993844;28;20937;-80
2020/12/31 03:28:21;;;;;;;9.63;3.90;;;;;;;9.43;70.53;94065.75;4975555;28;20445;-80
2020/12/31 03:30:48;;;;;;;12.63;5.33;;;;;;;9.42;71.00;94074.56;4993809;28;20493;-80
2020/12/31 03:33:16;;;;;;;10.97;4.60;;;;;;;9.36;70.26;94069.91;4994022;28;20460;-80
2020/12/31 03:35:43;;;;;;;9.57;4.63;;;;;;;9.34;70.61;94070.06;4993922;28;20447;-80
2020/12/31 03:38:10;;;;;;;5.83;3.70;;;;;;;9.34;70.29;94061.38;4993607;28;20449;-80
2020/12/31 03:40:37;;;;;;;8.00;4.87;;;;;;;9.32;70.84;94070.22;4993259;28;20450;-80
2020/12/31 03:43:04;;;;;;;15.20;5.60;;;;;;;9.26;70.87;94065.56;4975215;28;20637;-80
2020/12/31 03:45:31;;;;;;;11.50;5.40;;;;;;;9.29;70.41;94064.44;4993140;28;20450;-80
2020/12/31 03:47:58;;;;;;;6.93;4.10;;;;;;;9.29;71.29;94070.50;4993731;28;20521;-80
2020/12/31 03:50:24;;;;;;;9.80;4.17;;;;;;;9.30;70.94;94068.69;4993342;28;20481;-80
2020/12/31 03:52:51;;;;;;;13.80;4.40;;;;;;;9.32;71.25;94064.97;4993070;28;20461;-80
2020/12/31 03:55:17;;;;;;;11.40;4.43;;;;;;;9.30;70.92;94056.44;4993051;28;20434;-80
2020/12/31 03:57:44;;;;;;;10.33;5.20;;;;;;;9.24;71.63;94067.47;4992914;28;20836;-79
2020/12/31 04:00:11;;;;;;;8.07;4.27;;;;;;;9.17;71.68;94062.94;4993249;28;20801;-80
2020/12/31 04:02:37;;;;;;;9.83;5.23;;;;;;;9.12;71.56;94055.50;4993208;28;20853;-80
2020/12/31 04:05:05;;;;;;;19.33;4.40;;;;;;;9.07;71.42;94055.13;4992880;28;20933;-80
2020/12/31 04:07:31;;;;;;;8.73;5.00;;;;;;;9.04;72.08;94052.78;4993156;28;20440;-80
2020/12/31 04:09:57;;;;;;;13.07;4.77;;;;;;;9.01;72.17;94045.22;4992881;28;21025;-80
2020/12/31 04:12:24;;;;;;;18.57;6.23;;;;;;;9.06;72.50;94036.94;4993093;28;20449;-81
2020/12/31 04:14:50;;;;;;;10.77;4.87;;;;;;;9.06;72.68;94052.66;4993176;28;20547;-80
2020/12/31 04:17:17;;;;;;;14.80;4.30;;;;;;;9.07;72.76;94038.59;4958919;28;20810;-80
2020/12/31 04:19:44;;;;;;;13.17;4.57;;;;;;;9.09;73.28;94032.25;4993390;28;20462;-80
2020/12/31 04:22:11;;;;;;;8.70;3.83;;;;;;;9.16;72.84;94022.03;4958696;28;20484;-80
2020/12/31 04:24:37;;;;;;;11.63;4.50;;;;;;;9.21;72.68;94020.63;4992889;28;20966;-80
2020/12/31 04:27:04;;;;;;;14.07;4.67;;;;;;;9.24;71.60;94030.81;4992877;28;20461;-78
2020/12/31 04:29:30;;;;;;;10.80;4.80;;;;;;;9.32;71.77;94032.72;4993281;28;20455;-80
2020/12/31 04:31:57;;;;;;;14.93;5.00;;;;;;;9.35;71.17;94026.38;4993017;28;20957;-80
2020/12/31 04:34:23;;;;;;;18.07;4.50;;;;;;;9.31;71.58;94034.53;4993008;28;20456;-79
2020/12/31 04:36:50;;;;;;;5.37;4.50;;;;;;;9.14;71.25;94027.41;4993401;28;20442;-79
2020/12/31 04:39:17;;;;;;;13.70;7.20;;;;;;;9.12;71.76;94020.66;4993022;28;20442;-80
2020/12/31 04:41:44;;;;;;;12.90;6.27;;;;;;;9.14;72.11;94022.16;4992940;28;20446;-80
2020/12/31 04:44:14;;;;;;;13.17;5.77;;;;;;;9.15;71.93;94026.44;4992860;28;20620;-80
2020/12/31 04:46:41;;;;;;;22.10;8.20;;;;;;;9.15;71.77;94026.44;4992446;28;20965;-80
2020/12/31 04:49:12;;;;;;;24.57;7.67;;;;;;;9.03;72.20;94026.75;4992254;28;20437;-79
2020/12/31 04:51:43;;;;;;;27.67;7.03;;;;;;;8.77;73.52;94027.38;4992494;28;20456;-80
2020/12/31 04:54:09;;;;;;;12.30;5.40;;;;;;;8.71;73.53;94032.34;4995078;28;20824;-80
2020/12/31 04:56:38;;;;;;;20.37;7.77;;;;;;;8.53;74.48;94035.66;4996442;28;20449;-80
2020/12/31 04:59:04;;;;;;;13.37;8.63;;;;;;;8.38;75.44;94032.66;4996460;28;20477;-80
2020/12/31 05:01:31;;;;;;;10.40;4.73;;;;;;;8.30;75.72;94029.00;4996295;28;20812;-80
2020/12/31 05:03:57;;;;;;;8.23;5.73;;;;;;;8.27;76.25;94040.56;4961498;28;20477;-80
2020/12/31 05:06:26;;;;;;;5.60;4.30;;;;;;;8.22;76.63;94036.72;4996336;28;20443;-80
2020/12/31 05:08:52;;;;;;;14.87;6.00;;;;;;;8.25;77.05;94031.22;4996356;28;20448;-80
2020/12/31 05:11:19;;;;;;;13.03;5.63;;;;;;;8.29;76.64;94037.81;4996069;28;20453;-80
2020/12/31 05:13:47;;;;;;;12.43;5.80;;;;;;;8.40;76.44;94044.75;4996648;28;20810;-79
2020/12/31 05:16:14;;;;;;;19.33;5.27;;;;;;;8.49;76.16;94039.50;4995804;28;20471;-80
2020/12/31 05:18:40;;;;;;;9.23;4.03;;;;;;;8.59;75.65;94035.09;4977409;28;20449;-80
2020/12/31 05:21:16;;;;;;;13.27;5.97;;;;;;;8.72;75.43;94040.03;4995867;28;20449;-80
2020/12/31 05:23:46;;;;;;;8.37;4.90;;;;;;;8.84;74.73;94023.22;4995634;28;20492;-80
2020/12/31 05:26:27;;;;;;;9.83;5.10;;;;;;;8.91;74.51;94033.94;4995785;28;20466;-80
2020/12/31 05:28:55;;;;;;;14.20;6.37;;;;;;;8.89;74.39;94015.75;4995984;28;20487;-80
2020/12/31 05:31:21;;;;;;;13.13;5.47;;;;;;;8.96;74.83;94014.25;4995555;28;20443;-80
2020/12/31 05:33:48;;;;;;;21.23;5.37;;;;;;;9.05;74.08;94025.66;4995535;28;20954;-80
2020/12/31 05:36:18;;;;;;;15.13;6.77;;;;;;;9.05;74.01;94028.28;4995724;28;20946;-80
2020/12/31 05:38:46;;;;;;;16.03;6.47;;;;;;;9.10;73.44;94027.84;4995932;28;20477;-80
2020/12/31 05:41:13;;;;;;;10.50;6.53;;;;;;;9.17;73.25;94040.22;4995435;28;20485;-80
2020/12/31 05:43:41;;;;;;;18.30;6.80;;;;;;;9.29;73.15;94038.25;4995157;28;20489;-80
2020/12/31 05:46:10;;;;;;;22.30;8.30;;;;;;;9.34;73.12;94041.28;4995657;28;20453;-80
2020/12/31 05:48:38;;;;;;;16.53;8.67;;;;;;;9.22;73.27;94056.31;4995597;28;20880;-80
2020/12/31 05:51:20;;;;;;;15.40;7.30;;;;;;;9.20;72.98;94047.78;4995755;28;20447;-79
2020/12/31 05:53:48;;;;;;;12.27;5.93;;;;;;;9.13;73.10;94054.53;4995482;28;20442;-80
2020/12/31 05:56:16;;;;;;;13.40;6.83;;;;;;;9.12;73.14;94058.13;4995047;28;20449;-80
2020/12/31 05:58:45;;;;;;;19.23;7.90;;;;;;;9.00;73.39;94048.81;4995710;28;20480;-87
2020/12/31 06:01:17;;;;;;;19.77;6.23;;;;;;;9.00;74.46;94046.19;4996750;28;20461;-88
2020/12/31 06:03:51;;;;;;;23.37;7.53;;;;;;;9.11;74.97;94058.28;4996342;28;20540;-86
2020/12/31 06:06:23;;;;;;;18.70;7.50;;;;;;;9.26;74.06;94049.84;4996766;28;20510;-87
2020/12/31 06:08:57;;;;;;;26.60;7.33;;;;;;;9.43;75.44;94050.03;4962216;28;21044;-87
2020/12/31 06:11:32;;;;;;;15.93;6.83;;;;;;;9.52;72.72;94054.41;4995990;28;20992;-81
2020/12/31 06:13:59;;;;;;;9.00;5.33;;;;;;;9.54;72.42;94068.19;4995206;28;20510;-79
2020/12/31 06:16:28;;;;;;;11.80;5.77;;;;;;;9.62;71.96;94060.44;4995157;28;20500;-79
2020/12/31 06:19:01;;;;;;;12.60;7.27;;;;;;;9.66;71.94;94067.03;4995002;28;20446;-81
2020/12/31 06:21:40;;;;;;;9.20;4.07;;;;;;;9.69;71.73;94061.50;4994689;28;20865;-80
2020/12/31 06:24:12;;;;;;;11.83;5.37;;;;;;;9.69;70.69;94066.75;4994969;28;20485;-80
2020/12/31 06:26:41;;;;;;;8.47;4.57;;;;;;;9.60;71.51;94063.22;5001353;28;20929;-80
2020/12/31 06:29:08;;;;;;;13.27;5.30;;;;;;;9.65;72.04;94060.16;5000731;28;20443;-80
2020/12/31 06:31:37;;;;;;;14.80;5.00;;;;;;;9.86;71.04;94052.06;5006515;28;20466;-81
2020/12/31 06:34:04;;;;;;;13.27;5.63;;;;;;;10.06;70.93;94053.59;5012792;28;20869;-80
2020/12/31 06:36:35;;;;;;;10.13;5.70;;;;;;;10.25;70.81;94050.06;5014072;28;20818;-80
2020/12/31 06:39:02;;;;;;;19.23;5.20;;;;;;;10.33;69.49;94060.63;5013958;28;20833;-79
2020/12/31 06:41:38;;;;;;;20.90;8.10;;;;;;;10.33;69.39;94049.31;5014006;28;20446;-78
2020/12/31 06:44:09;;;;;;;19.37;9.40;;;;;;;10.37;69.88;94055.88;5013637;28;20483;-80
2020/12/31 06:46:41;;;;;;;15.80;8.90;;;;;;;10.32;69.86;94061.59;5013964;28;20485;-80
2020/12/31 06:49:08;;;;;;;15.83;7.07;;;;;;;10.18;70.89;94065.53;5013775;28;20453;-79
2020/12/31 06:51:34;;;;;;;23.67;7.70;;;;;;;10.19;70.44;94068.97;5013610;28;20962;-80
2020/12/31 06:54:01;;;;;;;17.93;6.90;;;;;;;10.39;70.53;94067.88;5013822;28;20449;-80
2020/12/31 06:56:42;;;;;;;12.13;7.03;;;;;;;10.57;70.41;94072.31;5013504;28;20452;-80
2020/12/31 06:59:30;;;;;;;14.80;8.20;;;;;;;10.73;70.22;94088.22;5013125;28;20474;-80
2020/12/31 07:01:59;;;;;;;22.27;11.67;;;;;;;10.80;70.19;94094.50;5000617;28;20485;-80
2020/12/31 07:04:30;;;;;;;16.17;8.50;;;;;;;10.82;69.06;94093.38;5013462;28;20861;-80
2020/12/31 07:06:56;;;;;;;15.73;7.00;;;;;;;10.92;69.53;94101.16;5013206;28;20457;-80
2020/12/31 07:09:36;;;;;;;16.37;8.60;;;;;;;10.99;69.16;94104.84;5013199;28;20457;-80
2020/12/31 07:12:05;;;;;;;25.00;7.00;;;;;;;11.09;69.91;94110.00;5013061;28;20953;-81
2020/12/31 07:14:33;;;;;;;9.10;5.73;;;;;;;11.12;69.25;94102.63;5013057;28;20486;-78
2020/12/31 07:17:03;;;;;;;19.07;9.30;;;;;;;11.15;69.03;94112.84;5012557;28;20435;-79
2020/12/31 07:19:43;;;;;;;320.30;116.70;;;;;;;11.17;69.40;94113.50;5013001;28;20459;-80
2020/12/31 07:22:22;;;;;;;111.80;47.87;;;;;;;11.20;71.42;94106.28;5013200;28;20454;-82
2020/12/31 07:24:51;;;;;;;65.63;30.47;;;;;;;11.23;72.04;94122.56;5013233;28;20441;-82
2020/12/31 07:27:36;;;;;;;64.73;31.17;;;;;;;11.21;72.30;94124.53;5013110;28;20823;-80
2020/12/31 07:30:11;;;;;;;46.80;21.93;;;;;;;11.23;73.98;94121.75;4971482;28;20456;-81
2020/12/31 07:32:52;;;;;;;39.33;19.73;;;;;;;11.23;73.84;94119.94;4971742;28;20447;-83
2020/12/31 07:35:20;;;;;;;35.50;18.50;;;;;;;11.23;75.28;94121.75;4973047;28;20461;-85
2020/12/31 07:37:51;;;;;;;33.20;18.27;;;;;;;11.10;75.02;94128.22;4972003;28;20844;-82
2020/12/31 07:40:29;;;;;;;31.13;14.67;;;;;;;10.98;75.72;94134.66;4972118;28;20449;-82
2020/12/31 07:42:56;;;;;;;36.70;17.00;;;;;;;10.95;76.61;94134.97;4940730;28;20490;-81
2020/12/31 07:45:23;;;;;;;38.30;21.20;;;;;;;10.97;76.62;94148.78;4972461;28;20880;-85
2020/12/31 07:47:51;;;;;;;52.07;24.17;;;;;;;10.96;77.45;94151.53;4972426;28;20787;-85
2020/12/31 07:50:18;;;;;;;65.37;27.73;;;;;;;10.93;78.53;94157.94;4971857;28;20441;-81
2020/12/31 07:52:44;;;;;;;30.87;15.27;;;;;;;10.94;78.13;94164.81;4971437;28;20456;-80
2020/12/31 07:55:11;;;;;;;17.83;10.70;;;;;;;10.93;78.42;94157.09;4971230;28;20486;-79
2020/12/31 07:57:38;;;;;;;19.50;10.77;;;;;;;10.68;79.88;94150.78;4939113;28;21054;-79
2020/12/31 08:00:04;;;;;;;23.27;11.57;;;;;;;10.71;80.14;94164.47;4971490;28;20511;-82
2020/12/31 08:02:32;;;;;;;23.03;11.70;;;;;;;10.76;82.16;94158.75;4971245;28;20484;-80
2020/12/31 08:04:59;;;;;;;27.50;15.00;;;;;;;10.78;82.88;94159.44;4971508;28;20440;-81
2020/12/31 08:07:25;;;;;;;34.07;15.60;;;;;;;10.48;83.75;94163.22;4963533;28;20431;-80
2020/12/31 08:09:52;;;;;;;36.47;14.87;;;;;;;10.49;84.58;94176.19;5012860;28;20481;-80
2020/12/31 08:12:18;;;;;;;44.63;19.07;;;;;;;10.41;84.83;94163.00;4977820;28;20466;-80
2020/12/31 08:14:47;;;;;;;26.63;14.67;;;;;;;9.81;90.05;94133.69;5012645;28;20446;-80
2020/12/31 08:17:14;;;;;;;30.80;12.27;;;;;;;9.61;89.09;94166.19;4977326;28;20450;-81
2020/12/31 08:19:41;;;;;;;35.73;15.60;;;;;;;9.81;90.38;94166.94;5012806;28;20598;-81
2020/12/31 08:22:23;;;;;;;15.97;8.70;;;;;;;9.90;90.51;94153.00;5012579;28;20500;-81
2020/12/31 08:24:58;;;;;;;16.23;9.50;;;;;;;10.01;89.33;94146.72;5012480;28;20930;-81
2020/12/31 08:27:25;;;;;;;35.40;14.03;;;;;;;9.92;89.11;94136.16;4998562;28;20449;-83
2020/12/31 08:29:54;;;;;;;16.63;10.77;;;;;;;9.95;89.42;94124.56;4996993;28;20461;-82
2020/12/31 08:32:25;;;;;;;18.13;10.50;;;;;;;9.94;92.14;94109.81;4996871;28;20820;-80
2020/12/31 08:34:57;;;;;;;21.17;9.30;;;;;;;10.03;90.80;94111.53;4996868;28;20454;-80
2020/12/31 08:37:27;;;;;;;20.30;10.70;;;;;;;10.06;91.34;94115.66;4996966;28;20512;-84
2020/12/31 08:39:56;;;;;;;20.30;10.80;;;;;;;10.09;90.49;94120.63;4996837;28;20442;-82
2020/12/31 08:42:24;;;;;;;28.63;14.27;;;;;;;10.25;91.49;94131.34;4996436;28;20512;-80
2020/12/31 08:44:53;;;;;;;39.30;18.93;;;;;;;10.43;93.58;94129.56;4996975;28;20442;-86
2020/12/31 08:47:21;;;;;;;24.10;15.97;;;;;;;10.58;93.02;94135.13;4996926;28;20446;-81
2020/12/31 08:49:51;;;;;;;22.73;14.17;;;;;;;10.98;100.00;94129.41;4996894;28;20444;-80
2020/12/31 08:52:18;;;;;;;22.10;14.10;;;;;;;11.14;93.84;94147.13;4996439;28;20457;-80
2020/12/31 08:54:45;;;;;;;46.57;19.93;;;;;;;11.29;92.35;94140.38;4961701;28;20815;-80
2020/12/31 08:57:16;;;;;;;32.97;15.47;;;;;;;11.37;90.09;94136.97;4996469;28;20451;-79
2020/12/31 08:59:42;;;;;;;15.23;9.37;;;;;;;11.51;89.32;94120.63;4996539;28;20521;-81
2020/12/31 09:02:12;;;;;;;18.10;8.43;;;;;;;11.47;86.27;94114.88;4996643;28;20464;-80
2020/12/31 09:04:38;;;;;;;26.20;12.70;;;;;;;11.49;87.94;94148.84;4996124;28;20526;-82
2020/12/31 09:07:10;;;;;;;27.33;11.73;;;;;;;11.45;88.37;94142.25;4978004;28;20491;-80
2020/12/31 09:09:37;;;;;;;19.63;10.90;;;;;;;11.35;90.66;94128.41;4996534;28;20463;-80
2020/12/31 09:12:08;;;;;;;21.07;12.10;;;;;;;11.27;90.22;94149.34;4996004;28;20944;-80
2020/12/31 09:14:36;;;;;;;19.63;10.27;;;;;;;11.72;100.00;94147.38;4996815;28;20787;-83
2020/12/31 09:17:20;;;;;;;26.80;13.68;;;;;;;12.09;89.92;94143.66;4996211;28;20452;-85
2020/12/31 09:19:50;;;;;;;30.40;11.20;;;;;;;12.79;99.81;94175.00;4996467;28;20200;-85
2020/12/31 09:22:16;;;;;;;53.20;25.07;;;;;;;13.18;90.80;94172.59;4996470;28;20452;-82
2020/12/31 09:24:43;;;;;;;21.27;12.50;;;;;;;12.68;82.37;94147.13;4996046;28;20445;-81
2020/12/31 09:27:10;;;;;;;23.40;11.00;;;;;;;12.20;85.27;94127.59;4961458;28;20851;-81
2020/12/31 09:29:37;;;;;;;16.20;11.57;;;;;;;11.74;85.65;94111.25;4995915;28;20440;-80
2020/12/31 09:32:03;;;;;;;19.93;11.97;;;;;;;11.45;85.83;94126.50;4995678;28;20982;-80
2020/12/31 09:34:30;;;;;;;22.60;13.17;;;;;;;11.49;87.50;94127.84;4995663;28;20445;-81
2020/12/31 09:37:00;;;;;;;23.30;12.97;;;;;;;11.51;88.79;94114.53;4996109;28;20439;-82
2020/12/31 09:39:27;;;;;;;19.83;11.40;;;;;;;11.38;89.70;94104.47;4995463;28;20487;-81
2020/12/31 09:41:53;;;;;;;22.43;10.53;;;;;;;11.50;89.31;94103.22;4995844;28;20462;-83
2020/12/31 09:44:20;;;;;;;20.80;10.20;;;;;;;11.62;90.06;94088.84;4995697;28;20479;-84
2020/12/31 09:46:47;;;;;;;19.20;11.33;;;;;;;11.75;90.54;94094.50;4995572;28;20448;-82
2020/12/31 09:49:14;;;;;;;20.90;10.47;;;;;;;11.88;90.06;94070.44;4995663;28;20471;-84
2020/12/31 09:51:40;;;;;;;24.27;12.20;;;;;;;12.05;89.60;94071.31;4995500;28;21047;-83
2020/12/31 09:54:06;;;;;;;20.60;11.70;;;;;;;12.19;89.30;94073.34;4995313;28;20441;-82
2020/12/31 09:56:33;;;;;;;28.53;15.70;;;;;;;12.32;88.62;94070.25;4995326;28;20810;-80
2020/12/31 09:58:59;;;;;;;27.13;15.33;;;;;;;12.46;87.27;94067.00;4976760;28;20468;-80
2020/12/31 10:01:27;;;;;;;19.87;13.20;;;;;;;12.52;86.14;94076.06;4995425;28;20437;-83
2020/12/31 10:03:53;;;;;;;19.77;13.27;;;;;;;12.59;85.43;94067.34;4995216;28;20491;-81
2020/12/31 10:06:20;;;;;;;26.90;14.77;;;;;;;12.61;87.76;94061.91;4994972;28;21007;-81
2020/12/31 10:08:47;;;;;;;32.33;14.27;;;;;;;12.50;86.23;94055.19;4995926;28;20451;-83
2020/12/31 10:11:14;;;;;;;15.90;11.33;;;;;;;12.39;86.42;94039.69;4995864;28;20440;-84
2020/12/31 10:13:40;;;;;;;16.63;10.90;;;;;;;12.37;86.26;94021.44;4995597;28;20448;-83
2020/12/31 10:16:06;;;;;;;10.80;7.37;;;;;;;12.20;85.94;94016.31;4995756;28;20448;-78
2020/12/31 10:18:34;;;;;;;11.93;4.40;;;;;;;12.05;86.39;94019.56;4995473;28;20444;-87
2020/12/31 10:21:00;;;;;;;14.90;4.83;;;;;;;11.96;84.86;94022.34;4995238;28;20947;-86
2020/12/31 10:23:26;;;;;;;8.90;5.40;;;;;;;11.81;85.68;94021.28;4961263;28;20504;-81
2020/12/31 10:25:53;;;;;;;12.27;5.30;;;;;;;12.08;86.27;94003.44;4995003;28;20435;-81
2020/12/31 10:28:20;;;;;;;10.33;4.27;;;;;;;12.18;81.22;94013.84;4994852;28;20452;-80
2020/12/31 10:30:47;;;;;;;10.93;3.83;;;;;;;12.26;77.42;94015.66;4995296;28;20858;-81
2020/12/31 10:33:13;;;;;;;10.80;4.67;;;;;;;12.26;77.91;94024.38;4995701;28;20449;-80
2020/12/31 10:35:41;;;;;;;6.80;4.07;;;;;;;12.36;76.38;94011.06;4995057;28;20452;-80
2020/12/31 10:38:07;;;;;;;4.20;2.53;;;;;;;12.53;67.21;94012.75;4960569;28;20519;-85
2020/12/31 10:40:34;;;;;;;5.77;2.57;;;;;;;12.70;70.45;94009.13;4994948;28;20440;-81
2020/12/31 10:43:00;;;;;;;3.50;3.07;;;;;;;12.89;72.86;93996.63;4994628;28;20480;-82
2020/12/31 10:45:26;;;;;;;5.23;3.10;;;;;;;12.86;67.24;94010.94;4994349;28;20490;-83
2020/12/31 10:47:53;;;;;;;9.77;3.40;;;;;;;12.80;65.06;94019.50;4994520;28;20467;-83
2020/12/31 10:50:19;;;;;;;7.80;3.00;;;;;;;12.86;64.97;94010.13;4993535;28;20448;-81
2020/12/31 10:52:46;;;;;;;5.53;2.90;;;;;;;12.92;64.97;94012.91;4994489;28;20494;-80
2020/12/31 10:55:13;;;;;;;9.87;3.63;;;;;;;12.98;66.70;94006.13;4994132;28;20895;-81
2020/12/31 10:57:39;;;;;;;6.20;4.00;;;;;;;13.11;64.09;94016.19;4994273;28;20966;-82
2020/12/31 11:00:06;;;;;;;6.33;3.37;;;;;;;13.26;62.60;94010.09;4994057;28;20476;-80
2020/12/31 11:02:32;;;;;;;6.27;3.37;;;;;;;13.39;61.96;94009.56;4993866;28;20504;-86
2020/12/31 11:04:58;;;;;;;7.33;3.80;;;;;;;13.54;62.23;94007.88;4996429;28;20463;-85
2020/12/31 11:07:25;;;;;;;8.63;6.10;;;;;;;13.57;60.52;93996.97;4996507;28;20453;-86
2020/12/31 11:09:52;;;;;;;5.83;3.63;;;;;;;13.31;59.32;93988.53;4994911;28;20524;-86
2020/12/31 11:12:19;;;;;;;8.93;3.30;;;;;;;13.62;61.00;94001.78;4994587;28;20506;-83
2020/12/31 11:14:45;;;;;;;7.73;4.07;;;;;;;13.63;61.24;94001.59;4994060;28;20750;-83
2020/12/31 11:17:11;;;;;;;6.63;4.10;;;;;;;13.70;61.89;93993.00;4994078;28;20535;-84
2020/12/31 11:19:38;;;;;;;4.53;3.90;;;;;;;13.88;60.74;93980.41;4994373;28;20456;-84
2020/12/31 11:22:05;;;;;;;4.67;3.30;;;;;;;13.91;57.97;93972.97;4994423;28;20441;-83
2020/12/31 11:24:32;;;;;;;10.60;5.13;;;;;;;14.91;100.00;93985.34;4994278;28;20476;-86
2020/12/31 11:26:59;;;;;;;4.60;2.90;;;;;;;16.02;66.01;93988.78;4994360;28;20836;-82
2020/12/31 11:29:25;;;;;;;6.50;3.27;;;;;;;15.94;56.50;93980.16;4994607;28;20485;-84